Time;durP1;ratioP1;P1;durP2;ratioP2;P2;SDS_P1;SDS_P2;PMS_P1;PMS_P2;Temp;Humidity;BMP_temperature;BMP_pressure;BME280_temperature;BME280_humidity;BME280_pressure;Samples;Min_cycle;Max_cycle;Signal;HPM_P1;HPM_P2
2022/07/08 00:01:59;;;;;;;8.43;1.67;;;;;;;;;;5018656;28;20198;-69
2022/07/08 00:04:24;;;;;;;11.38;1.98;;;;;;;;;;5024903;28;20190;-68
2022/07/08 00:06:50;;;;;;;7.80;1.73;;;;;;;;;;5018627;28;20203;-69
2022/07/08 00:09:15;;;;;;;12.73;1.80;;;;;;;;;;5024644;28;20254;-69
2022/07/08 00:11:41;;;;;;;9.35;2.10;;;;;;;;;;5009916;28;20187;-69
2022/07/08 00:14:08;;;;;;;6.95;1.70;;;;;;;;;;5026417;28;20731;-69
2022/07/08 00:16:34;;;;;;;14.63;2.40;;;;;;;;;;5033692;28;20190;-68
2022/07/08 00:19:00;;;;;;;7.85;2.17;;;;;;;;;;5018156;28;20473;-69
2022/07/08 00:21:26;;;;;;;9.40;1.83;;;;;;;;;;5017349;28;20434;-68
2022/07/08 00:23:52;;;;;;;10.70;1.90;;;;;;;;;;5015746;28;20199;-67
2022/07/08 00:26:17;;;;;;;8.77;2.20;;;;;;;;;;5026483;28;20185;-68
2022/07/08 00:28:42;;;;;;;7.65;1.55;;;;;;;;;;5030195;28;20267;-69
2022/07/08 00:31:08;;;;;;;8.05;2.00;;;;;;;;;;5020860;28;20284;-69
2022/07/08 00:33:34;;;;;;;9.00;2.20;;;;;;;;;;5039893;28;20189;-69
2022/07/08 00:35:59;;;;;;;8.18;1.63;;;;;;;;;;5039577;28;20180;-68
2022/07/08 00:38:24;;;;;;;8.82;1.85;;;;;;;;;;5031546;28;20256;-70
2022/07/08 00:40:50;;;;;;;9.73;1.70;;;;;;;;;;5020264;28;20182;-70
2022/07/08 00:43:25;;;;;;;7.20;2.30;;;;;;;;;;5031987;28;20224;-68
2022/07/08 00:45:50;;;;;;;8.75;1.65;;;;;;;;;;5029799;28;20186;-70
2022/07/08 00:48:16;;;;;;;11.77;2.40;;;;;;;;;;5020332;28;20195;-68
2022/07/08 00:50:41;;;;;;;6.50;1.63;;;;;;;;;;5028440;28;20265;-68
2022/07/08 00:53:06;;;;;;;11.75;1.50;;;;;;;;;;5027978;28;20185;-69
2022/07/08 00:55:32;;;;;;;8.65;1.45;;;;;;;;;;5023822;28;20208;-68
2022/07/08 00:57:57;;;;;;;4.53;1.30;;;;;;;;;;5031074;28;20190;-68
2022/07/08 01:00:22;;;;;;;9.18;1.73;;;;;;;;;;5027815;28;20536;-69
2022/07/08 01:02:48;;;;;;;7.82;1.65;;;;;;;;;;5021436;28;20616;-70
2022/07/08 01:05:14;;;;;;;9.43;1.50;;;;;;;;;;5032115;28;20186;-69
2022/07/08 01:07:41;;;;;;;11.45;1.63;;;;;;;;;;5026946;28;20189;-69
2022/07/08 01:10:07;;;;;;;11.27;1.60;;;;;;;;;;5028063;28;20190;-69
2022/07/08 01:12:32;;;;;;;6.57;1.35;;;;;;;;;;5028851;28;20179;-70
2022/07/08 01:14:58;;;;;;;6.18;1.38;;;;;;;;;;5021044;28;20167;-70
2022/07/08 01:17:28;;;;;;;9.82;1.63;;;;;;;;;;5024835;28;20543;-69
2022/07/08 01:19:53;;;;;;;4.68;1.27;;;;;;;;;;5032099;28;20730;-70
2022/07/08 01:22:18;;;;;;;5.38;1.05;;;;;;;;;;5024385;28;20217;-69
2022/07/08 01:24:43;;;;;;;12.02;1.98;;;;;;;;;;5029096;28;20188;-68
2022/07/08 01:27:09;;;;;;;11.38;1.60;;;;;;;;;;5024225;28;20222;-67
2022/07/08 01:29:35;;;;;;;5.07;1.40;;;;;;;;;;5027852;28;20186;-67
2022/07/08 01:32:00;;;;;;;6.00;1.30;;;;;;;;;;5029622;28;20205;-69
2022/07/08 01:34:26;;;;;;;11.13;1.80;;;;;;;;;;5019009;28;20854;-67
2022/07/08 01:36:51;;;;;;;8.13;1.50;;;;;;;;;;5022458;28;20187;-68
2022/07/08 01:39:16;;;;;;;7.10;1.40;;;;;;;;;;5024437;28;20201;-69
2022/07/08 01:41:42;;;;;;;11.65;1.88;;;;;;;;;;5023293;28;20639;-68
2022/07/08 01:44:08;;;;;;;11.07;1.73;;;;;;;;;;5027954;28;20190;-68
2022/07/08 01:46:34;;;;;;;10.20;1.50;;;;;;;;;;5019590;28;20179;-67
2022/07/08 01:48:59;;;;;;;9.55;1.67;;;;;;;;;;5013937;28;20198;-68
2022/07/08 01:51:24;;;;;;;11.85;1.80;;;;;;;;;;5029801;28;20181;-68
2022/07/08 01:53:50;;;;;;;10.52;1.60;;;;;;;;;;5022757;28;20193;-68
2022/07/08 01:56:15;;;;;;;10.98;1.92;;;;;;;;;;5032891;28;20664;-69
2022/07/08 01:58:40;;;;;;;7.70;1.67;;;;;;;;;;5037109;28;20240;-69
2022/07/08 02:01:06;;;;;;;6.55;1.35;;;;;;;;;;5033278;28;20193;-68
2022/07/08 02:03:31;;;;;;;11.25;1.55;;;;;;;;;;5025911;28;20194;-68
2022/07/08 02:05:56;;;;;;;11.23;2.17;;;;;;;;;;5021385;28;20201;-68
2022/07/08 02:08:23;;;;;;;7.78;2.10;;;;;;;;;;5027327;28;20314;-68
2022/07/08 02:13:33;;;;;;;10.30;1.40;;;;;;;;;;5027379;28;20196;-68
2022/07/08 02:15:59;;;;;;;8.52;1.55;;;;;;;;;;5018804;28;20273;-69
2022/07/08 02:18:24;;;;;;;11.30;1.60;;;;;;;;;;5043439;28;20587;-69
2022/07/08 02:20:51;;;;;;;12.77;1.95;;;;;;;;;;5040101;28;20663;-68
2022/07/08 02:23:16;;;;;;;7.75;1.58;;;;;;;;;;5030525;28;20323;-68
2022/07/08 02:25:41;;;;;;;3.42;1.05;;;;;;;;;;5025516;28;20748;-68
2022/07/08 02:28:07;;;;;;;7.07;1.95;;;;;;;;;;5028534;28;20233;-69
2022/07/08 02:30:32;;;;;;;10.02;1.52;;;;;;;;;;5033824;28;20182;-69
2022/07/08 02:32:57;;;;;;;6.50;1.60;;;;;;;;;;5027831;28;20643;-68
2022/07/08 02:35:23;;;;;;;8.77;1.63;;;;;;;;;;5024705;28;20185;-69
2022/07/08 02:37:48;;;;;;;8.07;1.70;;;;;;;;;;5021772;28;20190;-69
2022/07/08 02:40:13;;;;;;;8.48;1.60;;;;;;;;;;5026717;28;20533;-68
2022/07/08 02:42:39;;;;;;;8.70;1.58;;;;;;;;;;5025712;28;20217;-69
2022/07/08 02:45:05;;;;;;;5.10;1.42;;;;;;;;;;5028571;28;20198;-69
2022/07/08 02:47:30;;;;;;;8.27;1.50;;;;;;;;;;5025392;28;20274;-70
2022/07/08 02:49:55;;;;;;;11.55;1.70;;;;;;;;;;5028210;28;20207;-69
2022/07/08 02:52:21;;;;;;;10.45;1.48;;;;;;;;;;5020850;28;20183;-69
2022/07/08 02:54:46;;;;;;;10.70;1.83;;;;;;;;;;5034335;28;20181;-67
2022/07/08 02:57:11;;;;;;;8.77;1.33;;;;;;;;;;5020999;28;20190;-68
2022/07/08 02:59:37;;;;;;;8.48;1.70;;;;;;;;;;5027624;28;20186;-68
2022/07/08 03:02:02;;;;;;;7.28;1.52;;;;;;;;;;5023330;28;20301;-68
2022/07/08 03:04:27;;;;;;;9.18;1.50;;;;;;;;;;5028860;28;20185;-69
2022/07/08 03:06:53;;;;;;;7.78;1.55;;;;;;;;;;5017691;28;20190;-69
2022/07/08 03:09:18;;;;;;;6.18;1.20;;;;;;;;;;5015440;28;20174;-67
2022/07/08 03:11:43;;;;;;;9.00;1.52;;;;;;;;;;5023524;28;20186;-68
2022/07/08 03:14:09;;;;;;;9.68;1.67;;;;;;;;;;5023983;28;20213;-68
2022/07/08 03:16:35;;;;;;;8.13;2.10;;;;;;;;;;5023138;28;20186;-68
2022/07/08 03:19:00;;;;;;;6.70;1.75;;;;;;;;;;5026126;28;20190;-68
2022/07/08 03:21:26;;;;;;;9.65;1.42;;;;;;;;;;5020416;28;20193;-69
2022/07/08 03:23:51;;;;;;;6.65;1.65;;;;;;;;;;5034139;28;20703;-69
2022/07/08 03:26:17;;;;;;;3.75;1.33;;;;;;;;;;5031038;28;20272;-68
2022/07/08 03:28:42;;;;;;;10.32;1.88;;;;;;;;;;5022449;28;20607;-68
2022/07/08 03:31:07;;;;;;;10.68;1.63;;;;;;;;;;5036749;28;20684;-69
2022/07/08 03:33:33;;;;;;;9.45;1.85;;;;;;;;;;5021717;28;20265;-68
2022/07/08 03:35:58;;;;;;;8.05;1.80;;;;;;;;;;5019916;28;20178;-69
2022/07/08 03:38:24;;;;;;;14.27;2.13;;;;;;;;;;5027358;28;20220;-69
2022/07/08 03:43:33;;;;;;;6.75;1.63;;;;;;;;;;5024710;28;20287;-69
2022/07/08 03:45:58;;;;;;;4.45;1.42;;;;;;;;;;5025913;28;20187;-68
2022/07/08 03:48:24;;;;;;;7.22;1.60;;;;;;;;;;5034875;28;20181;-69
2022/07/08 03:50:49;;;;;;;8.60;2.13;;;;;;;;;;5023773;28;20550;-69
2022/07/08 03:53:15;;;;;;;10.40;1.50;;;;;;;;;;5025710;28;20175;-68
2022/07/08 03:55:40;;;;;;;10.65;1.90;;;;;;;;;;5028428;28;20495;-69
2022/07/08 03:58:05;;;;;;;6.75;1.52;;;;;;;;;;5033174;28;20221;-68
2022/07/08 04:00:31;;;;;;;10.02;1.35;;;;;;;;;;5039309;28;20269;-68
2022/07/08 04:02:56;;;;;;;9.02;2.15;;;;;;;;;;5035529;28;20766;-68
2022/07/08 04:05:21;;;;;;;9.90;1.75;;;;;;;;;;5046099;28;20193;-67
2022/07/08 04:07:47;;;;;;;7.95;1.30;;;;;;;;;;5044555;28;20189;-70
2022/07/08 04:10:12;;;;;;;10.75;1.80;;;;;;;;;;5034069;28;20629;-69
2022/07/08 04:12:38;;;;;;;8.63;1.67;;;;;;;;;;5032669;28;20198;-69
2022/07/08 04:15:03;;;;;;;7.65;2.08;;;;;;;;;;5024682;28;20269;-70
2022/07/08 04:17:29;;;;;;;8.45;1.42;;;;;;;;;;5038637;28;20281;-68
2022/07/08 04:19:54;;;;;;;8.45;1.50;;;;;;;;;;5047448;28;20209;-69
2022/07/08 04:22:20;;;;;;;7.03;1.60;;;;;;;;;;5039758;28;20229;-69
2022/07/08 04:24:45;;;;;;;9.30;1.40;;;;;;;;;;5036297;28;20190;-69
2022/07/08 04:27:10;;;;;;;8.50;1.65;;;;;;;;;;5039073;28;20243;-69
2022/07/08 04:29:36;;;;;;;7.90;1.55;;;;;;;;;;5043098;28;20616;-69
2022/07/08 04:32:01;;;;;;;7.60;1.58;;;;;;;;;;5036643;28;20281;-68
2022/07/08 04:34:27;;;;;;;5.55;1.60;;;;;;;;;;5045633;28;20190;-69
2022/07/08 04:36:52;;;;;;;11.18;1.70;;;;;;;;;;5037940;28;20189;-69
2022/07/08 04:39:17;;;;;;;7.88;1.75;;;;;;;;;;5044396;28;20182;-70
2022/07/08 04:41:43;;;;;;;6.97;1.85;;;;;;;;;;5036179;28;20367;-69
2022/07/08 04:44:08;;;;;;;6.00;1.70;;;;;;;;;;5027468;28;20194;-70
2022/07/08 04:46:33;;;;;;;8.02;1.63;;;;;;;;;;5031917;28;20195;-69
2022/07/08 04:48:59;;;;;;;8.82;2.15;;;;;;;;;;5039315;28;20268;-69
2022/07/08 04:51:24;;;;;;;7.43;1.50;;;;;;;;;;5043773;28;20261;-68
2022/07/08 04:53:49;;;;;;;8.05;1.70;;;;;;;;;;5036522;28;20262;-68
2022/07/08 04:56:15;;;;;;;8.25;1.88;;;;;;;;;;5042866;28;20600;-68
2022/07/08 04:58:40;;;;;;;7.28;1.70;;;;;;;;;;5035439;28;20178;-68
2022/07/08 05:01:05;;;;;;;9.75;1.38;;;;;;;;;;5040418;28;20174;-69
2022/07/08 05:03:31;;;;;;;4.90;1.67;;;;;;;;;;5038449;28;20540;-68
2022/07/08 05:05:56;;;;;;;7.38;1.65;;;;;;;;;;5033291;28;20257;-69
2022/07/08 05:08:22;;;;;;;12.02;2.13;;;;;;;;;;5027206;28;20212;-68
2022/07/08 05:10:48;;;;;;;6.57;1.25;;;;;;;;;;5032770;28;20240;-69
2022/07/08 05:13:13;;;;;;;5.53;1.40;;;;;;;;;;5028508;28;20184;-69
2022/07/08 05:15:39;;;;;;;6.75;1.30;;;;;;;;;;5025202;28;20257;-69
2022/07/08 05:18:04;;;;;;;6.60;1.60;;;;;;;;;;5040727;28;20203;-68
2022/07/08 05:20:30;;;;;;;7.15;1.38;;;;;;;;;;5023204;28;20220;-69
2022/07/08 05:22:56;;;;;;;11.77;1.50;;;;;;;;;;5023242;28;20732;-67
2022/07/08 05:25:21;;;;;;;11.00;1.60;;;;;;;;;;5021856;28;20549;-70
2022/07/08 05:27:46;;;;;;;8.05;1.50;;;;;;;;;;5031149;28;20233;-69
2022/07/08 05:30:12;;;;;;;5.63;1.88;;;;;;;;;;5035637;28;20209;-68
2022/07/08 05:32:38;;;;;;;9.25;1.80;;;;;;;;;;5032290;28;20237;-68
2022/07/08 05:35:05;;;;;;;9.55;2.05;;;;;;;;;;5038284;28;20225;-69
2022/07/08 05:37:31;;;;;;;6.28;1.77;;;;;;;;;;5029524;28;20273;-69
2022/07/08 05:39:57;;;;;;;5.65;1.52;;;;;;;;;;5042878;28;20173;-67
2022/07/08 05:42:22;;;;;;;5.35;1.55;;;;;;;;;;5040597;28;20212;-67
2022/07/08 05:44:48;;;;;;;6.18;2.20;;;;;;;;;;5044183;28;20196;-67
2022/07/08 05:47:13;;;;;;;7.90;1.85;;;;;;;;;;5025567;28;20189;-67
2022/07/08 05:49:40;;;;;;;7.97;1.83;;;;;;;;;;5043797;28;20177;-68
2022/07/08 05:52:05;;;;;;;7.80;2.03;;;;;;;;;;5023851;28;20312;-69
2022/07/08 05:54:31;;;;;;;6.93;2.00;;;;;;;;;;5028461;28;20190;-67
2022/07/08 05:56:57;;;;;;;5.88;1.80;;;;;;;;;;5026187;28;20273;-67
2022/07/08 05:59:23;;;;;;;9.55;2.17;;;;;;;;;;5026620;28;20251;-68
2022/07/08 06:01:48;;;;;;;4.95;1.58;;;;;;;;;;5024027;28;20643;-67
2022/07/08 06:04:13;;;;;;;7.28;1.63;;;;;;;;;;5027474;28;20292;-68
2022/07/08 06:06:39;;;;;;;4.80;1.45;;;;;;;;;;5023988;28;20197;-67
2022/07/08 06:09:04;;;;;;;8.18;1.85;;;;;;;;;;5026065;28;20228;-67
2022/07/08 06:11:29;;;;;;;9.52;1.65;;;;;;;;;;5024321;28;20262;-67
2022/07/08 06:13:55;;;;;;;5.90;1.77;;;;;;;;;;5023629;28;20215;-67
2022/07/08 06:16:20;;;;;;;8.02;1.63;;;;;;;;;;5030456;28;20193;-67
2022/07/08 06:18:46;;;;;;;7.40;1.35;;;;;;;;;;5026139;28;20182;-67
2022/07/08 06:21:12;;;;;;;7.03;1.50;;;;;;;;;;5032283;28;20193;-67
2022/07/08 06:23:37;;;;;;;9.48;1.67;;;;;;;;;;5015478;28;20237;-67
2022/07/08 06:26:03;;;;;;;19.17;1.60;;;;;;;;;;5015209;28;20270;-67
2022/07/08 06:28:28;;;;;;;9.63;1.50;;;;;;;;;;5020199;28;20222;-67
2022/07/08 06:30:53;;;;;;;4.72;1.48;;;;;;;;;;5036423;28;20350;-67
2022/07/08 06:33:19;;;;;;;6.25;0.98;;;;;;;;;;5035780;28;20282;-67
2022/07/08 06:35:44;;;;;;;8.55;1.40;;;;;;;;;;5031361;28;20964;-67
2022/07/08 06:38:09;;;;;;;10.25;1.67;;;;;;;;;;5041985;28;20196;-67
2022/07/08 06:40:35;;;;;;;10.23;1.67;;;;;;;;;;5044624;28;20188;-66
2022/07/08 06:43:00;;;;;;;9.07;1.75;;;;;;;;;;5041493;28;20193;-67
2022/07/08 06:45:26;;;;;;;4.45;1.10;;;;;;;;;;5045509;28;20510;-67
2022/07/08 06:47:51;;;;;;;3.97;1.27;;;;;;;;;;5034763;28;20178;-67
2022/07/08 06:50:16;;;;;;;8.02;1.35;;;;;;;;;;5029249;28;20177;-64
2022/07/08 06:52:42;;;;;;;11.07;1.38;;;;;;;;;;5027360;28;20197;-65
2022/07/08 06:55:08;;;;;;;5.07;1.50;;;;;;;;;;5033067;28;20182;-67
2022/07/08 06:57:34;;;;;;;10.48;2.05;;;;;;;;;;5032601;28;20277;-66
2022/07/08 06:59:59;;;;;;;8.07;2.17;;;;;;;;;;5034157;28;20256;-67
2022/07/08 07:02:25;;;;;;;7.53;1.48;;;;;;;;;;5042435;28;20256;-67
2022/07/08 07:04:50;;;;;;;6.75;1.73;;;;;;;;;;5042819;28;20545;-66
2022/07/08 07:07:15;;;;;;;10.30;1.73;;;;;;;;;;5037551;28;20185;-66
2022/07/08 07:09:41;;;;;;;8.40;1.63;;;;;;;;;;5046433;28;20645;-66
2022/07/08 07:12:07;;;;;;;8.35;1.50;;;;;;;;;;5038773;28;20581;-67
2022/07/08 07:14:33;;;;;;;7.15;1.60;;;;;;;;;;5033963;28;20174;-73
2022/07/08 07:16:59;;;;;;;7.35;1.50;;;;;;;;;;5040950;28;20212;-66
2022/07/08 07:19:24;;;;;;;6.75;1.20;;;;;;;;;;5041267;28;20567;-65
2022/07/08 07:21:50;;;;;;;6.40;1.33;;;;;;;;;;5039200;28;20925;-65
2022/07/08 07:24:15;;;;;;;9.75;1.23;;;;;;;;;;5040389;28;20258;-67
2022/07/08 07:26:41;;;;;;;8.23;1.27;;;;;;;;;;5040073;28;20205;-68
2022/07/08 07:29:07;;;;;;;7.90;1.52;;;;;;;;;;5018734;28;20220;-66
2022/07/08 07:31:33;;;;;;;8.32;1.48;;;;;;;;;;5041164;28;20291;-68
2022/07/08 07:33:58;;;;;;;6.30;1.70;;;;;;;;;;5035998;28;20241;-66
2022/07/08 07:36:24;;;;;;;8.43;1.45;;;;;;;;;;5036202;28;20208;-64
2022/07/08 07:38:49;;;;;;;4.60;1.30;;;;;;;;;;5035180;28;20181;-65
2022/07/08 07:41:14;;;;;;;7.43;1.75;;;;;;;;;;5044408;28;20207;-66
2022/07/08 07:43:40;;;;;;;7.88;1.30;;;;;;;;;;5042402;28;20197;-68
2022/07/08 07:46:05;;;;;;;7.07;1.60;;;;;;;;;;5036756;28;20190;-68
2022/07/08 07:48:31;;;;;;;8.20;1.50;;;;;;;;;;5037544;28;20656;-65
2022/07/08 07:50:56;;;;;;;7.63;1.27;;;;;;;;;;5045112;28;20664;-66
2022/07/08 07:53:21;;;;;;;8.82;1.50;;;;;;;;;;5041638;28;20687;-66
2022/07/08 07:55:47;;;;;;;9.60;1.67;;;;;;;;;;5049047;28;20715;-68
2022/07/08 07:58:12;;;;;;;7.13;1.20;;;;;;;;;;5050439;28;20257;-66
2022/07/08 08:00:37;;;;;;;8.50;1.75;;;;;;;;;;5045305;28;20189;-67
2022/07/08 08:03:03;;;;;;;8.10;1.52;;;;;;;;;;5037649;28;20201;-67
2022/07/08 08:05:28;;;;;;;7.95;1.50;;;;;;;;;;5049615;28;20170;-67
2022/07/08 08:07:54;;;;;;;8.43;1.65;;;;;;;;;;5047289;28;20201;-67
2022/07/08 08:10:19;;;;;;;7.13;1.35;;;;;;;;;;5049621;28;20170;-66
2022/07/08 08:12:45;;;;;;;10.60;1.52;;;;;;;;;;5044386;28;20189;-66
2022/07/08 08:15:10;;;;;;;8.52;2.03;;;;;;;;;;5042697;28;20185;-68
2022/07/08 08:17:40;;;;;;;7.20;1.05;;;;;;;;;;5043932;28;20581;-65
2022/07/08 08:20:08;;;;;;;5.50;1.15;;;;;;;;;;5044378;28;20185;-67
2022/07/08 08:22:33;;;;;;;6.35;1.50;;;;;;;;;;5040022;28;20228;-68
2022/07/08 08:24:59;;;;;;;7.45;1.20;;;;;;;;;;5031395;28;20198;-67
2022/07/08 08:27:24;;;;;;;7.97;1.80;;;;;;;;;;5018380;28;20226;-67
2022/07/08 08:29:50;;;;;;;7.90;1.63;;;;;;;;;;5041282;28;20451;-67
2022/07/08 08:32:15;;;;;;;7.65;1.50;;;;;;;;;;5042936;28;20194;-67
2022/07/08 08:34:41;;;;;;;7.03;1.30;;;;;;;;;;5036931;28;20182;-67
2022/07/08 08:37:06;;;;;;;7.03;1.35;;;;;;;;;;5040449;28;20184;-68
2022/07/08 08:39:32;;;;;;;8.68;1.67;;;;;;;;;;5041430;28;20178;-68
2022/07/08 08:41:58;;;;;;;8.13;1.33;;;;;;;;;;5026819;28;20273;-67
2022/07/08 08:44:23;;;;;;;6.68;1.42;;;;;;;;;;5031779;28;20182;-65
2022/07/08 08:46:51;;;;;;;10.52;1.33;;;;;;;;;;5042444;28;20296;-66
2022/07/08 08:49:18;;;;;;;7.03;1.65;;;;;;;;;;5041010;28;20232;-67
2022/07/08 08:51:46;;;;;;;6.03;1.40;;;;;;;;;;5040486;28;20180;-67
2022/07/08 08:54:13;;;;;;;7.82;1.63;;;;;;;;;;5021512;28;20181;-66
2022/07/08 08:56:39;;;;;;;10.45;1.73;;;;;;;;;;5036658;28;20595;-66
2022/07/08 08:59:05;;;;;;;8.95;1.85;;;;;;;;;;5035936;28;20186;-66
2022/07/08 09:01:32;;;;;;;7.32;1.90;;;;;;;;;;5045617;28;20315;-67
2022/07/08 09:03:59;;;;;;;7.22;1.60;;;;;;;;;;5044715;28;20204;-67
2022/07/08 09:06:24;;;;;;;10.15;2.00;;;;;;;;;;5045953;28;20454;-66
2022/07/08 09:08:49;;;;;;;7.30;1.40;;;;;;;;;;5039004;28;20173;-65
2022/07/08 09:11:17;;;;;;;5.78;1.35;;;;;;;;;;5029164;28;20626;-65
2022/07/08 09:13:42;;;;;;;6.38;1.58;;;;;;;;;;5037943;28;20616;-65
2022/07/08 09:16:08;;;;;;;7.10;1.67;;;;;;;;;;5036821;28;20181;-67
2022/07/08 09:18:35;;;;;;;10.57;1.40;;;;;;;;;;5029445;28;20541;-68
2022/07/08 09:21:02;;;;;;;10.52;1.63;;;;;;;;;;5033449;28;20216;-66
2022/07/08 09:23:35;;;;;;;9.23;1.95;;;;;;;;;;5030740;28;20233;-67
2022/07/08 09:26:02;;;;;;;10.13;1.95;;;;;;;;;;5029373;28;20198;-67
2022/07/08 09:28:35;;;;;;;4.72;1.38;;;;;;;;;;5031223;28;20222;-65
2022/07/08 09:31:03;;;;;;;8.65;1.83;;;;;;;;;;5029025;28;20428;-67
2022/07/08 09:33:29;;;;;;;5.35;1.30;;;;;;;;;;5029982;28;20213;-65
2022/07/08 09:35:56;;;;;;;10.80;2.28;;;;;;;;;;5043244;28;20565;-66
2022/07/08 09:38:23;;;;;;;5.10;1.60;;;;;;;;;;5028706;28;20182;-66
2022/07/08 09:41:03;;;;;;;8.50;1.73;;;;;;;;;;5029384;28;20233;-67
2022/07/08 09:43:30;;;;;;;10.20;2.03;;;;;;;;;;5036637;28;20588;-65
2022/07/08 09:46:05;;;;;;;8.63;2.00;;;;;;;;;;5036509;28;20193;-66
2022/07/08 09:48:30;;;;;;;5.28;1.55;;;;;;;;;;5035152;28;20269;-66
2022/07/08 09:50:59;;;;;;;12.25;2.20;;;;;;;;;;5039109;28;20273;-66
2022/07/08 09:53:26;;;;;;;11.63;2.00;;;;;;;;;;5042344;28;20610;-64
2022/07/08 09:55:54;;;;;;;7.25;1.80;;;;;;;;;;5043415;28;20217;-67
2022/07/08 09:58:24;;;;;;;8.48;1.65;;;;;;;;;;5045662;28;20186;-66
2022/07/08 10:00:54;;;;;;;6.30;1.35;;;;;;;;;;5038774;28;20174;-66
2022/07/08 10:03:21;;;;;;;7.70;1.52;;;;;;;;;;5028688;28;20280;-67
2022/07/08 10:05:47;;;;;;;10.07;2.30;;;;;;;;;;5043733;28;20212;-67
2022/07/08 10:08:14;;;;;;;8.82;1.50;;;;;;;;;;5043629;28;20700;-67
2022/07/08 10:10:42;;;;;;;5.57;1.60;;;;;;;;;;5044837;28;20186;-70
2022/07/08 10:13:08;;;;;;;6.10;1.60;;;;;;;;;;5043164;28;20857;-66
2022/07/08 10:15:35;;;;;;;7.47;1.88;;;;;;;;;;5040013;28;20193;-67
2022/07/08 10:18:06;;;;;;;5.03;1.42;;;;;;;;;;5041576;28;20184;-66
2022/07/08 10:20:34;;;;;;;5.88;1.48;;;;;;;;;;5043632;28;20234;-65
2022/07/08 10:23:05;;;;;;;6.57;1.63;;;;;;;;;;5032055;28;20202;-66
2022/07/08 10:25:31;;;;;;;7.10;2.53;;;;;;;;;;5038898;28;20174;-66
2022/07/08 10:28:04;;;;;;;8.23;1.65;;;;;;;;;;5042949;28;20253;-67
2022/07/08 10:30:43;;;;;;;7.03;1.60;;;;;;;;;;5040620;28;20178;-66
2022/07/08 10:33:10;;;;;;;7.72;1.40;;;;;;;;;;5044599;28;20324;-67
2022/07/08 10:36:06;;;;;;;5.10;1.50;;;;;;;;;;5043652;28;20677;-66
2022/07/08 10:38:36;;;;;;;8.65;1.73;;;;;;;;;;5045752;28;20264;-68
2022/07/08 10:41:07;;;;;;;7.40;1.70;;;;;;;;;;5036710;28;20576;-67
2022/07/08 10:43:32;;;;;;;6.40;1.85;;;;;;;;;;5034110;28;20196;-66
2022/07/08 10:46:15;;;;;;;8.63;2.20;;;;;;;;;;5038750;28;20185;-66
2022/07/08 10:48:40;;;;;;;5.97;1.45;;;;;;;;;;5041260;28;20649;-67
2022/07/08 10:51:06;;;;;;;8.23;1.90;;;;;;;;;;5041578;28;20186;-67
2022/07/08 10:53:50;;;;;;;6.72;1.83;;;;;;;;;;5034200;28;20251;-65
2022/07/08 10:56:54;;;;;;;7.82;2.08;;;;;;;;;;5026026;28;20178;-67
2022/07/08 10:59:28;;;;;;;9.30;1.95;;;;;;;;;;5018115;28;20668;-67
2022/07/08 11:01:57;;;;;;;7.57;1.83;;;;;;;;;;5023218;28;20193;-66
2022/07/08 11:04:35;;;;;;;11.50;1.98;;;;;;;;;;5026594;28;20204;-66
2022/07/08 11:07:20;;;;;;;5.10;1.52;;;;;;;;;;5022864;28;20990;-65
2022/07/08 11:09:55;;;;;;;4.63;1.60;;;;;;;;;;5016823;28;20551;-64
2022/07/08 11:12:29;;;;;;;5.88;1.60;;;;;;;;;;5034155;28;20292;-65
2022/07/08 11:14:56;;;;;;;7.32;1.92;;;;;;;;;;5034417;28;20225;-67
2022/07/08 11:17:30;;;;;;;5.43;1.60;;;;;;;;;;5026982;28;20182;-66
2022/07/08 11:19:58;;;;;;;7.40;1.70;;;;;;;;;;5033630;28;20541;-68
2022/07/08 11:22:24;;;;;;;6.82;1.88;;;;;;;;;;5040921;28;20206;-65
2022/07/08 11:24:50;;;;;;;7.68;1.80;;;;;;;;;;5044649;28;20242;-65
2022/07/08 11:27:16;;;;;;;9.27;1.70;;;;;;;;;;5044660;28;20692;-66
2022/07/08 11:29:51;;;;;;;5.70;1.65;;;;;;;;;;5040630;28;20198;-65
2022/07/08 11:32:19;;;;;;;8.48;1.83;;;;;;;;;;5041860;28;20193;-67
2022/07/08 11:34:48;;;;;;;8.00;1.85;;;;;;;;;;5042994;28;20271;-67
2022/07/08 11:37:14;;;;;;;6.80;1.70;;;;;;;;;;5038277;28;20192;-67
2022/07/08 11:39:41;;;;;;;6.20;1.65;;;;;;;;;;5044483;28;20174;-68
2022/07/08 11:42:08;;;;;;;6.10;1.70;;;;;;;;;;5040189;28;20196;-67
2022/07/08 11:44:33;;;;;;;7.50;1.67;;;;;;;;;;5046821;28;20180;-66
2022/07/08 11:46:58;;;;;;;8.82;1.85;;;;;;;;;;5043069;28;20680;-67
2022/07/08 11:49:24;;;;;;;7.30;1.88;;;;;;;;;;5037562;28;20335;-68
2022/07/08 11:51:52;;;;;;;7.15;1.73;;;;;;;;;;5046688;28;20280;-67
2022/07/08 11:54:22;;;;;;;5.85;1.83;;;;;;;;;;5031775;28;20204;-68
2022/07/08 11:56:54;;;;;;;5.15;1.88;;;;;;;;;;5043710;28;20185;-68
2022/07/08 11:59:25;;;;;;;7.25;1.52;;;;;;;;;;5038657;28;20185;-71
2022/07/08 12:01:52;;;;;;;6.03;2.30;;;;;;;;;;5041204;28;20184;-69
2022/07/08 12:04:18;;;;;;;5.00;1.55;;;;;;;;;;5035985;28;20281;-69
2022/07/08 12:06:57;;;;;;;4.80;1.63;;;;;;;;;;5044797;28;20268;-66
2022/07/08 12:09:24;;;;;;;7.45;1.52;;;;;;;;;;5035527;28;20394;-66
2022/07/08 12:11:52;;;;;;;7.55;2.28;;;;;;;;;;5032520;28;20201;-69
2022/07/08 12:14:17;;;;;;;6.72;1.75;;;;;;;;;;5035751;28;20182;-70
2022/07/08 12:16:46;;;;;;;10.27;1.85;;;;;;;;;;5041652;28;20695;-69
2022/07/08 12:19:36;;;;;;;7.68;1.90;;;;;;;;;;5040328;28;20657;-66
2022/07/08 12:22:05;;;;;;;6.85;1.95;;;;;;;;;;5042181;28;20217;-68
2022/07/08 12:24:38;;;;;;;6.57;1.65;;;;;;;;;;5036462;28;20178;-71
2022/07/08 12:27:16;;;;;;;3.60;1.45;;;;;;;;;;5047387;28;20211;-69
2022/07/08 12:29:41;;;;;;;6.05;1.73;;;;;;;;;;5045122;28;20185;-69
2022/07/08 12:32:08;;;;;;;6.93;2.00;;;;;;;;;;5038979;28;20720;-68
2022/07/08 12:34:34;;;;;;;7.15;1.80;;;;;;;;;;5038957;28;20289;-69
2022/07/08 12:37:17;;;;;;;7.50;1.77;;;;;;;;;;5044065;28;20256;-67
2022/07/08 12:39:43;;;;;;;7.38;1.95;;;;;;;;;;5045892;28;20628;-69
2022/07/08 12:42:08;;;;;;;6.53;1.92;;;;;;;;;;5047556;28;20209;-68
2022/07/08 12:44:40;;;;;;;6.47;1.75;;;;;;;;;;5041272;28;20194;-67
2022/07/08 12:47:11;;;;;;;5.20;1.65;;;;;;;;;;5045130;28;20640;-67
2022/07/08 12:49:39;;;;;;;9.80;2.17;;;;;;;;;;5040519;28;20240;-66
2022/07/08 12:52:06;;;;;;;7.35;1.80;;;;;;;;;;5041369;28;20180;-66
2022/07/08 12:54:32;;;;;;;5.68;1.88;;;;;;;;;;5041996;28;20190;-68
2022/07/08 12:56:59;;;;;;;11.30;1.90;;;;;;;;;;5042210;28;20189;-64
2022/07/08 12:59:25;;;;;;;7.32;1.98;;;;;;;;;;5036391;28;20585;-69
2022/07/08 13:01:52;;;;;;;7.65;2.25;;;;;;;;;;5036813;28;20580;-68
2022/07/08 13:04:18;;;;;;;7.03;1.95;;;;;;;;;;5036989;28;20396;-69
2022/07/08 13:06:44;;;;;;;6.25;1.60;;;;;;;;;;5043986;28;20558;-65
2022/07/08 13:09:11;;;;;;;3.95;1.73;;;;;;;;;;5044847;28;20177;-66
2022/07/08 13:11:40;;;;;;;7.50;1.67;;;;;;;;;;5040011;28;20252;-65
2022/07/08 13:14:06;;;;;;;6.30;1.85;;;;;;;;;;5047048;28;20178;-67
2022/07/08 13:16:32;;;;;;;7.57;1.75;;;;;;;;;;5044706;28;20660;-66
2022/07/08 13:18:57;;;;;;;8.20;1.83;;;;;;;;;;5042014;28;20182;-67
2022/07/08 13:21:23;;;;;;;2.97;1.50;;;;;;;;;;5036271;28;20182;-65
2022/07/08 13:23:48;;;;;;;7.03;1.60;;;;;;;;;;5034116;28;20554;-66
2022/07/08 13:26:14;;;;;;;2.47;1.23;;;;;;;;;;5036742;28;20191;-67
2022/07/08 13:28:39;;;;;;;8.40;2.08;;;;;;;;;;5041084;28;20230;-71
2022/07/08 13:31:05;;;;;;;6.53;1.77;;;;;;;;;;5036789;28;20209;-66
2022/07/08 13:33:30;;;;;;;5.97;1.85;;;;;;;;;;5037251;28;20693;-67
2022/07/08 13:35:56;;;;;;;6.38;2.15;;;;;;;;;;5035473;28;20178;-68
2022/07/08 13:38:22;;;;;;;4.63;1.95;;;;;;;;;;5031494;28;20527;-67
2022/07/08 13:40:47;;;;;;;4.72;1.60;;;;;;;;;;5033199;28;20201;-65
2022/07/08 13:43:12;;;;;;;10.32;2.22;;;;;;;;;;5029478;28;20233;-68
2022/07/08 13:45:38;;;;;;;7.20;1.90;;;;;;;;;;5032824;28;20190;-65
2022/07/08 13:48:04;;;;;;;6.25;1.63;;;;;;;;;;5027218;28;20253;-66
2022/07/08 13:50:29;;;;;;;8.63;2.92;;;;;;;;;;5027644;28;20174;-70
2022/07/08 13:52:55;;;;;;;5.65;1.90;;;;;;;;;;5041572;28;20224;-69
2022/07/08 13:55:20;;;;;;;5.80;1.40;;;;;;;;;;5034205;28;20190;-71
2022/07/08 13:57:46;;;;;;;5.53;1.55;;;;;;;;;;5035673;28;20178;-69
2022/07/08 14:00:12;;;;;;;5.82;1.80;;;;;;;;;;5038725;28;20205;-65
2022/07/08 14:02:39;;;;;;;6.28;2.13;;;;;;;;;;5038231;28;20248;-66
2022/07/08 14:05:04;;;;;;;6.63;1.67;;;;;;;;;;5043518;28;20189;-68
2022/07/08 14:07:30;;;;;;;4.72;1.50;;;;;;;;;;5039108;28;20537;-70
2022/07/08 14:09:55;;;;;;;1.40;1.15;;;;;;;;;;5038330;28;20244;-66
2022/07/08 14:12:21;;;;;;;5.65;1.58;;;;;;;;;;5033893;28;20247;-64
2022/07/08 14:14:47;;;;;;;5.22;1.70;;;;;;;;;;5039494;28;20181;-66
2022/07/08 14:17:13;;;;;;;5.78;1.80;;;;;;;;;;5025846;28;20674;-65
2022/07/08 14:19:39;;;;;;;3.90;1.48;;;;;;;;;;5029160;28;20281;-69
2022/07/08 14:22:04;;;;;;;5.68;1.85;;;;;;;;;;5027909;28;20254;-73
2022/07/08 14:24:30;;;;;;;4.80;1.55;;;;;;;;;;5033188;28;20202;-68
2022/07/08 14:26:55;;;;;;;3.85;1.75;;;;;;;;;;5031268;28;20194;-66
2022/07/08 14:29:21;;;;;;;5.93;1.42;;;;;;;;;;5031394;28;20189;-67
2022/07/08 14:31:46;;;;;;;4.40;1.42;;;;;;;;;;5025679;28;20195;-66
2022/07/08 14:34:12;;;;;;;13.07;1.90;;;;;;;;;;5035988;28;20550;-67
2022/07/08 14:36:38;;;;;;;6.45;1.73;;;;;;;;;;5035108;28;20209;-72
2022/07/08 14:39:04;;;;;;;7.65;2.55;;;;;;;;;;5039911;28;20192;-67
2022/07/08 14:41:29;;;;;;;3.65;1.80;;;;;;;;;;5038916;28;20182;-64
2022/07/08 14:43:54;;;;;;;4.50;1.70;;;;;;;;;;5043894;28;20568;-67